Time;durP1;ratioP1;P1;durP2;ratioP2;P2;SDS_P1;SDS_P2;PMS_P1;PMS_P2;Temp;Humidity;BMP_temperature;BMP_pressure;BME280_temperature;BME280_humidity;BME280_pressure;Samples;Min_cycle;Max_cycle;Signal;HPM_P1;HPM_P2
2023/04/10 00:01:12;;;;;;;7.25;6.50;;;12.50;51.40;;;;;;5010618;28;20042;-52
2023/04/10 00:03:40;;;;;;;9.65;7.57;;;12.50;51.40;;;;;;5018171;28;20051;-50
2023/04/10 00:06:07;;;;;;;9.38;7.60;;;12.50;51.50;;;;;;5010373;28;20041;-49
2023/04/10 00:08:33;;;;;;;8.18;6.90;;;12.60;51.60;;;;;;5029567;28;20045;-48
2023/04/10 00:11:00;;;;;;;8.70;7.70;;;12.50;51.50;;;;;;5031317;28;20029;-49
2023/04/10 00:13:27;;;;;;;7.93;7.13;;;12.50;51.60;;;;;;5022373;28;20080;-48
2023/04/10 00:15:53;;;;;;;10.52;7.65;;;12.50;51.70;;;;;;5032589;28;20044;-49
2023/04/10 00:18:21;;;;;;;8.05;7.25;;;12.50;51.70;;;;;;5031434;28;20038;-48
2023/04/10 00:20:47;;;;;;;8.30;6.85;;;12.50;51.80;;;;;;5023474;28;20056;-51
2023/04/10 00:23:14;;;;;;;9.20;7.20;;;12.50;51.80;;;;;;5026189;28;20453;-49
2023/04/10 00:25:41;;;;;;;7.13;6.38;;;12.50;51.90;;;;;;5032196;28;20037;-52
2023/04/10 00:28:07;;;;;;;7.88;6.82;;;12.60;52.00;;;;;;5026683;28;20041;-52
2023/04/10 00:30:36;;;;;;;9.27;7.35;;;12.60;52.00;;;;;;5011915;28;20041;-52
2023/04/10 00:33:03;;;;;;;8.00;6.85;;;12.60;52.20;;;;;;5029781;28;20044;-49
2023/04/10 00:35:30;;;;;;;7.40;6.53;;;12.60;52.60;;;;;;5019008;28;20084;-49
2023/04/10 00:37:59;;;;;;;7.97;6.75;;;12.60;52.00;;;;;;5028550;28;20069;-51
2023/04/10 00:40:28;;;;;;;8.15;6.88;;;12.60;51.90;;;;;;5012368;28;20056;-52
2023/04/10 00:42:55;;;;;;;8.57;6.60;;;12.50;52.50;;;;;;5026617;28;20045;-49
2023/04/10 00:45:21;;;;;;;7.60;6.72;;;12.60;52.00;;;;;;5032745;28;20073;-51
2023/04/10 00:47:48;;;;;;;8.85;6.65;;;12.60;52.00;;;;;;5022195;28;20410;-50
2023/04/10 00:50:15;;;;;;;8.60;7.70;;;12.50;52.10;;;;;;5033378;28;20092;-52
2023/04/10 00:52:42;;;;;;;8.45;7.30;;;12.50;52.00;;;;;;5028759;28;20082;-52
2023/04/10 00:55:11;;;;;;;10.63;7.28;;;12.50;52.10;;;;;;5028495;28;20042;-49
2023/04/10 00:57:39;;;;;;;8.50;7.22;;;12.50;52.20;;;;;;5026870;28;20037;-48
2023/04/10 01:00:07;;;;;;;8.65;7.50;;;12.50;52.30;;;;;;5019686;28;20414;-52
2023/04/10 01:02:33;;;;;;;8.80;6.78;;;12.50;52.20;;;;;;5032795;28;20041;-51
2023/04/10 01:05:01;;;;;;;8.57;6.82;;;12.40;52.20;;;;;;5024379;28;20075;-50
2023/04/10 01:07:52;;;;;;;9.52;6.80;;;12.40;52.30;;;;;;5029291;28;20045;-48
2023/04/10 01:10:47;;;;;;;8.23;7.43;;;12.40;53.10;;;;;;5011804;28;20042;-51
2023/04/10 01:13:21;;;;;;;7.53;6.55;;;12.40;52.40;;;;;;5018345;28;20037;-49
2023/04/10 01:16:07;;;;;;;9.77;7.65;;;12.40;52.70;;;;;;5023000;28;20041;-51
2023/04/10 01:18:43;;;;;;;9.40;7.22;;;12.40;52.70;;;;;;5027864;28;20067;-51
2023/04/10 01:21:11;;;;;;;9.25;7.57;;;12.30;52.80;;;;;;5028081;28;20489;-51
2023/04/10 01:24:05;;;;;;;8.40;7.18;;;12.30;52.50;;;;;;5021377;28;20052;-51
2023/04/10 01:27:03;;;;;;;8.70;7.45;;;12.30;53.30;;;;;;5029330;28;20421;-49
2023/04/10 01:29:32;;;;;;;9.48;7.53;;;12.30;53.50;;;;;;5027498;28;20125;-51
2023/04/10 01:32:13;;;;;;;7.80;6.55;;;12.20;52.60;;;;;;5024878;28;20069;-49
2023/04/10 01:34:45;;;;;;;9.85;7.28;;;12.20;53.40;;;;;;4999572;28;20128;-49
2023/04/10 01:37:17;;;;;;;10.13;7.30;;;12.10;53.00;;;;;;5006480;28;20041;-52
2023/04/10 01:39:58;;;;;;;10.02;6.82;;;12.10;53.00;;;;;;5017867;28;20060;-49
2023/04/10 01:42:27;;;;;;;8.65;7.10;;;12.10;53.00;;;;;;5023320;28;20502;-51
2023/04/10 01:44:56;;;;;;;9.43;7.65;;;12.00;52.90;;;;;;5014452;28;20065;-49
2023/04/10 01:47:24;;;;;;;11.13;7.95;;;12.00;53.00;;;;;;5015700;28;20049;-52
2023/04/10 01:49:53;;;;;;;10.52;7.80;;;11.90;53.10;;;;;;5020613;28;20045;-48
2023/04/10 01:52:23;;;;;;;10.00;7.03;;;11.90;53.20;;;;;;5005248;28;20128;-53
2023/04/10 01:55:03;;;;;;;7.85;6.93;;;11.90;53.00;;;;;;5010941;28;20124;-52
2023/04/10 01:57:36;;;;;;;9.43;6.55;;;11.80;53.00;;;;;;5025723;28;20052;-52
2023/04/10 02:00:04;;;;;;;8.45;7.13;;;11.80;53.00;;;;;;5021881;28;20046;-49
2023/04/10 02:02:43;;;;;;;10.55;8.18;;;11.80;53.20;;;;;;5027427;28;20128;-48
2023/04/10 02:05:10;;;;;;;10.32;7.03;;;11.70;53.10;;;;;;5010739;28;20045;-50
2023/04/10 02:07:50;;;;;;;10.18;7.03;;;11.70;53.20;;;;;;5010944;28;20049;-48
2023/04/10 02:10:28;;;;;;;9.55;7.32;;;11.70;53.90;;;;;;5029024;28;20037;-52
2023/04/10 02:13:02;;;;;;;8.75;6.97;;;11.60;53.70;;;;;;5010527;28;20505;-51
2023/04/10 02:15:31;;;;;;;10.30;6.55;;;11.50;53.50;;;;;;5028826;28;20037;-52
2023/04/10 02:17:59;;;;;;;8.73;6.95;;;11.50;53.40;;;;;;5028165;28;20752;-47
2023/04/10 02:20:26;;;;;;;9.88;6.68;;;11.40;53.40;;;;;;5026349;28;20125;-49
2023/04/10 02:22:56;;;;;;;8.98;6.93;;;11.40;53.50;;;;;;5025097;28;20067;-51
2023/04/10 02:25:24;;;;;;;10.00;7.03;;;11.40;53.60;;;;;;5028326;28;20046;-51
2023/04/10 02:27:52;;;;;;;12.93;7.15;;;11.30;53.70;;;;;;5028096;28;20080;-51
2023/04/10 02:30:21;;;;;;;9.73;7.32;;;11.30;53.70;;;;;;5024366;28;20038;-53
2023/04/10 02:32:50;;;;;;;10.00;6.88;;;11.20;53.80;;;;;;5020368;28;20042;-51
2023/04/10 02:35:23;;;;;;;8.52;7.25;;;11.20;54.00;;;;;;5029907;28;20041;-50
2023/04/10 02:37:50;;;;;;;9.85;7.00;;;11.20;54.10;;;;;;5037414;28;20069;-51
2023/04/10 02:40:17;;;;;;;8.52;7.15;;;11.20;54.20;;;;;;5015215;28;20049;-52
2023/04/10 02:43:03;;;;;;;8.30;7.40;;;11.20;54.30;;;;;;5018010;28;20057;-48
2023/04/10 02:45:33;;;;;;;9.70;7.38;;;11.10;54.20;;;;;;5020656;28;20095;-50
2023/04/10 02:48:00;;;;;;;8.70;6.70;;;11.10;54.50;;;;;;5026612;28;20045;-49
2023/04/10 02:50:31;;;;;;;9.90;7.80;;;11.10;54.40;;;;;;5002907;28;20050;-51
2023/04/10 02:53:01;;;;;;;8.82;7.57;;;11.10;55.20;;;;;;5021069;28;20602;-51
2023/04/10 02:55:29;;;;;;;9.70;7.70;;;11.10;54.80;;;;;;5010370;28;20584;-49
2023/04/10 02:57:56;;;;;;;8.98;7.07;;;11.10;54.70;;;;;;5021010;28;20088;-51
2023/04/10 03:00:25;;;;;;;11.85;7.93;;;11.00;54.70;;;;;;5019787;28;20046;-48
2023/04/10 03:03:12;;;;;;;9.68;7.35;;;11.00;54.80;;;;;;5001991;28;20061;-47
2023/04/10 03:05:48;;;;;;;9.77;7.15;;;11.00;54.70;;;;;;5009423;28;20069;-50
2023/04/10 03:08:20;;;;;;;12.75;8.05;;;11.00;54.80;;;;;;5009649;28;20042;-50
2023/04/10 03:10:49;;;;;;;10.60;7.65;;;11.00;54.90;;;;;;5028244;28;20069;-52
2023/04/10 03:13:17;;;;;;;10.80;8.68;;;11.00;55.10;;;;;;5027690;28;20041;-51
2023/04/10 03:15:44;;;;;;;12.35;7.78;;;10.90;55.00;;;;;;5028571;28;20042;-51
2023/04/10 03:18:12;;;;;;;9.85;8.55;;;10.90;55.00;;;;;;5004402;28;20092;-52
2023/04/10 03:20:42;;;;;;;10.77;7.78;;;10.90;55.10;;;;;;5026771;28;20593;-51
2023/04/10 03:23:11;;;;;;;9.57;7.07;;;10.90;55.10;;;;;;5027096;28;20100;-49
2023/04/10 03:25:42;;;;;;;10.98;7.75;;;10.90;55.10;;;;;;5028575;28;20060;-49
2023/04/10 03:28:10;;;;;;;9.90;7.53;;;10.90;55.10;;;;;;5028681;28;20037;-52
2023/04/10 03:30:37;;;;;;;10.88;7.68;;;10.90;55.20;;;;;;5028316;28;20128;-50
2023/04/10 03:33:04;;;;;;;10.48;7.28;;;10.90;55.20;;;;;;5025037;28;20037;-52
2023/04/10 03:35:33;;;;;;;12.95;7.15;;;10.90;55.20;;;;;;5013945;28;20046;-52
2023/04/10 03:38:01;;;;;;;10.90;8.27;;;10.80;55.20;;;;;;5030552;28;20045;-49
2023/04/10 03:40:28;;;;;;;9.15;7.68;;;10.80;55.20;;;;;;5032112;28;20049;-50
2023/04/10 03:42:55;;;;;;;10.18;7.82;;;10.80;55.20;;;;;;5002582;28;20046;-52
2023/04/10 03:45:22;;;;;;;9.73;7.28;;;10.80;55.30;;;;;;5010805;28;20053;-52
2023/04/10 03:47:49;;;;;;;10.68;7.82;;;10.70;55.20;;;;;;5012748;28;20077;-49
2023/04/10 03:50:18;;;;;;;10.27;7.72;;;10.70;55.30;;;;;;5030384;28;20041;-50
2023/04/10 03:52:54;;;;;;;10.38;7.63;;;10.70;55.30;;;;;;5013659;28;20605;-52
2023/04/10 03:55:22;;;;;;;10.18;7.88;;;10.70;55.30;;;;;;5030972;28;20076;-48
2023/04/10 03:57:50;;;;;;;8.90;7.43;;;10.60;55.40;;;;;;5010862;28;20501;-51
2023/04/10 04:00:24;;;;;;;10.07;7.93;;;10.60;55.30;;;;;;5031275;28;20048;-49
2023/04/10 04:02:59;;;;;;;8.98;7.32;;;10.60;55.40;;;;;;5020057;28;20061;-53
2023/04/10 04:05:46;;;;;;;10.35;7.15;;;10.60;55.30;;;;;;5040327;28;20061;-51
2023/04/10 04:08:27;;;;;;;10.38;7.32;;;10.60;55.30;;;;;;5024939;28;20045;-48
2023/04/10 04:11:07;;;;;;;8.75;6.93;;;10.50;55.30;;;;;;5014230;28;20045;-51
2023/04/10 04:13:45;;;;;;;8.98;7.30;;;10.50;55.50;;;;;;5014026;28;20049;-49
2023/04/10 04:16:30;;;;;;;9.48;7.05;;;10.50;55.40;;;;;;5031636;28;20129;-48
2023/04/10 04:19:15;;;;;;;10.20;7.80;;;10.40;55.30;;;;;;5030031;28;20099;-48
2023/04/10 04:22:04;;;;;;;10.07;7.85;;;10.40;55.40;;;;;;5014058;28;20099;-48
2023/04/10 04:24:54;;;;;;;10.05;6.85;;;10.30;55.40;;;;;;5031409;28;20064;-52
2023/04/10 04:27:52;;;;;;;9.85;7.50;;;10.30;55.40;;;;;;5029635;28;20072;-49
2023/04/10 04:30:44;;;;;;;9.15;7.53;;;10.30;55.40;;;;;;5021086;28;20045;-48
2023/04/10 04:33:33;;;;;;;11.63;8.13;;;10.20;55.40;;;;;;5029395;28;20133;-48
2023/04/10 04:36:23;;;;;;;10.35;7.68;;;10.20;55.50;;;;;;5018186;28;20061;-51
2023/04/10 04:39:27;;;;;;;8.15;7.10;;;10.20;55.60;;;;;;4954787;28;20054;-52
2023/04/10 04:42:06;;;;;;;10.27;7.50;;;10.20;55.50;;;;;;4927482;29;20043;-50
2023/04/10 04:44:48;;;;;;;8.88;7.53;;;10.20;55.60;;;;;;4985844;28;20084;-49
2023/04/10 04:47:24;;;;;;;9.00;7.07;;;10.10;55.70;;;;;;5031347;28;20069;-49
2023/04/10 04:49:51;;;;;;;9.20;7.60;;;10.10;55.70;;;;;;5030589;28;20053;-48
2023/04/10 04:52:26;;;;;;;8.93;7.32;;;10.10;55.70;;;;;;5010959;28;20468;-48
2023/04/10 04:55:09;;;;;;;8.48;7.57;;;10.10;55.80;;;;;;5024037;28;20486;-51
2023/04/10 04:58:00;;;;;;;9.02;6.90;;;10.00;55.80;;;;;;5029228;28;20053;-50
2023/04/10 05:00:54;;;;;;;9.35;7.97;;;10.00;55.70;;;;;;5013629;28;20045;-49
2023/04/10 05:03:50;;;;;;;9.82;8.07;;;10.00;55.90;;;;;;5009397;28;20617;-48
2023/04/10 05:06:34;;;;;;;9.00;7.63;;;10.00;56.00;;;;;;5030420;28;20132;-49
2023/04/10 05:09:29;;;;;;;9.88;8.57;;;10.00;56.10;;;;;;5029755;28;20045;-48
2023/04/10 05:12:05;;;;;;;11.30;8.68;;;10.00;56.10;;;;;;5020825;28;20041;-50
2023/04/10 05:14:53;;;;;;;11.27;8.50;;;9.90;56.20;;;;;;5029036;28;20056;-52
2023/04/10 05:17:37;;;;;;;11.93;8.98;;;9.90;56.30;;;;;;5029808;28;20041;-48
2023/04/10 05:20:16;;;;;;;11.30;8.05;;;9.90;56.40;;;;;;5031584;28;20033;-48
2023/04/10 05:23:02;;;;;;;12.10;8.43;;;9.90;56.50;;;;;;5029372;28;20580;-48
2023/04/10 05:25:52;;;;;;;11.93;8.55;;;9.90;56.60;;;;;;5024436;28;20053;-49
2023/04/10 05:28:39;;;;;;;10.88;8.13;;;10.00;56.70;;;;;;5029798;28;20055;-52
2023/04/10 05:31:35;;;;;;;9.40;8.10;;;10.00;56.90;;;;;;5029160;28;20045;-50
2023/04/10 05:34:12;;;;;;;11.60;8.32;;;10.00;56.90;;;;;;5003239;28;20038;-47
2023/04/10 05:37:17;;;;;;;9.52;7.30;;;10.00;57.10;;;;;;4984705;28;20050;-48
2023/04/10 05:39:58;;;;;;;11.57;7.82;;;10.10;57.20;;;;;;4971831;28;20058;-52
2023/04/10 05:42:44;;;;;;;9.57;7.13;;;10.10;57.40;;;;;;5010774;28;20058;-48
2023/04/10 05:45:24;;;;;;;11.52;7.85;;;10.10;57.50;;;;;;5013225;28;20128;-48
2023/04/10 05:48:05;;;;;;;10.23;7.88;;;10.20;57.70;;;;;;5029707;28;20080;-47
2023/04/10 05:50:51;;;;;;;9.30;7.18;;;10.30;57.70;;;;;;5022779;28;20044;-48
2023/04/10 05:53:44;;;;;;;10.73;8.02;;;10.40;58.20;;;;;;5008241;28;20064;-49
2023/04/10 05:56:30;;;;;;;11.57;7.68;;;10.50;57.60;;;;;;5027482;28;20042;-48
2023/04/10 05:59:06;;;;;;;10.65;8.05;;;10.50;57.50;;;;;;4997108;28;20038;-52
2023/04/10 06:01:41;;;;;;;9.48;7.03;;;10.70;57.50;;;;;;5025462;28;20421;-48
2023/04/10 06:04:07;;;;;;;12.05;7.90;;;10.70;57.40;;;;;;5017186;28;20071;-52
2023/04/10 06:06:37;;;;;;;9.75;7.82;;;10.80;57.20;;;;;;5027287;28;20082;-51
2023/04/10 06:09:04;;;;;;;8.93;7.07;;;10.90;57.00;;;;;;5028781;28;20478;-47
2023/04/10 06:11:31;;;;;;;9.05;7.75;;;11.00;56.90;;;;;;5027872;28;20042;-52
2023/04/10 06:14:00;;;;;;;8.90;8.00;;;11.10;57.00;;;;;;5011292;28;20083;-48
2023/04/10 06:16:34;;;;;;;10.02;7.95;;;11.20;56.80;;;;;;5011597;28;20060;-52
2023/04/10 06:19:01;;;;;;;11.20;7.55;;;11.30;56.70;;;;;;5028197;28;20616;-49
2023/04/10 06:21:28;;;;;;;10.60;7.32;;;11.40;56.50;;;;;;5007334;28;20140;-51
2023/04/10 06:23:55;;;;;;;9.88;7.80;;;11.50;56.40;;;;;;5007062;28;20049;-50
2023/04/10 06:26:23;;;;;;;8.88;7.30;;;11.60;56.20;;;;;;5029315;28;20733;-48
2023/04/10 06:28:50;;;;;;;9.80;7.05;;;11.70;56.00;;;;;;5011341;28;20264;-52
2023/04/10 06:31:22;;;;;;;8.15;7.20;;;11.80;55.80;;;;;;5022490;28;20069;-49
2023/04/10 06:33:51;;;;;;;9.43;7.38;;;11.80;55.80;;;;;;5016988;28;20449;-48
2023/04/10 06:36:18;;;;;;;9.57;7.53;;;11.90;55.60;;;;;;5015450;28;20044;-50
2023/04/10 06:38:49;;;;;;;8.35;6.90;;;12.00;55.40;;;;;;5011887;28;20045;-49
2023/04/10 06:41:18;;;;;;;10.07;8.18;;;12.10;55.40;;;;;;5027328;28;20051;-52
2023/04/10 06:43:45;;;;;;;10.90;7.07;;;12.10;55.10;;;;;;5028150;28;20705;-49
2023/04/10 06:46:14;;;;;;;9.05;7.38;;;12.20;54.90;;;;;;5021299;28;20125;-49
2023/04/10 06:48:41;;;;;;;11.70;6.60;;;12.30;54.90;;;;;;5022236;28;20481;-49
2023/04/10 06:51:08;;;;;;;11.27;7.70;;;12.30;54.60;;;;;;5006091;28;20075;-49
2023/04/10 06:53:34;;;;;;;9.18;7.55;;;12.40;54.50;;;;;;5031453;28;20041;-49
2023/04/10 06:56:01;;;;;;;8.30;7.38;;;12.40;54.50;;;;;;5027280;28;20050;-49
2023/04/10 06:58:31;;;;;;;11.02;7.63;;;12.40;54.40;;;;;;5028748;28;20445;-49
2023/04/10 07:01:02;;;;;;;11.60;7.72;;;12.50;54.30;;;;;;5033076;28;20051;-50
2023/04/10 07:03:31;;;;;;;10.23;7.75;;;12.60;54.40;;;;;;5035070;28;20037;-48
2023/04/10 07:06:00;;;;;;;7.82;7.03;;;12.60;54.20;;;;;;5037333;28;20053;-48
2023/04/10 07:08:27;;;;;;;8.00;7.15;;;12.70;54.10;;;;;;5038269;28;20056;-49
2023/04/10 07:10:54;;;;;;;10.00;7.07;;;12.70;54.10;;;;;;5032948;28;20121;-51
2023/04/10 07:13:24;;;;;;;11.15;6.97;;;12.80;54.10;;;;;;5029728;28;20041;-52
2023/04/10 07:15:50;;;;;;;10.38;7.30;;;12.90;53.90;;;;;;5026970;28;20104;-49
2023/04/10 07:18:17;;;;;;;9.85;7.88;;;13.00;53.90;;;;;;5036963;28;20103;-49
2023/04/10 07:20:44;;;;;;;8.07;7.22;;;13.00;53.80;;;;;;5025784;28;20525;-52
2023/04/10 07:23:10;;;;;;;7.90;6.85;;;13.10;53.80;;;;;;5024842;28;20517;-49
2023/04/10 07:25:40;;;;;;;8.10;7.25;;;13.20;53.80;;;;;;5031073;28;20418;-48
2023/04/10 07:28:10;;;;;;;10.38;6.85;;;13.20;53.90;;;;;;5033003;28;20041;-52
2023/04/10 07:30:36;;;;;;;7.57;6.45;;;13.40;53.70;;;;;;5032623;28;20258;-52
2023/04/10 07:33:04;;;;;;;8.18;7.28;;;13.40;53.50;;;;;;5030016;28;20037;-49
2023/04/10 07:35:35;;;;;;;8.25;7.38;;;13.50;53.60;;;;;;5032929;28;20037;-49
2023/04/10 07:38:04;;;;;;;8.27;6.45;;;13.60;53.50;;;;;;5023671;28;20063;-48
2023/04/10 07:40:33;;;;;;;7.50;6.53;;;13.70;53.20;;;;;;5026720;28;20044;-49
2023/04/10 07:43:00;;;;;;;9.25;7.78;;;13.80;53.30;;;;;;5029042;28;20533;-51
2023/04/10 07:45:29;;;;;;;8.40;7.50;;;13.80;52.90;;;;;;5032171;28;20041;-48
2023/04/10 07:47:58;;;;;;;8.20;6.53;;;13.90;52.60;;;;;;5032750;28;20049;-52
2023/04/10 07:50:34;;;;;;;7.63;6.43;;;14.00;52.50;;;;;;5029249;28;20044;-50
2023/04/10 07:53:10;;;;;;;7.43;6.65;;;14.10;52.30;;;;;;5025735;28;20037;-51
2023/04/10 07:55:43;;;;;;;7.65;6.50;;;14.20;52.30;;;;;;5028984;28;20404;-53
2023/04/10 07:58:12;;;;;;;7.03;6.30;;;14.30;51.80;;;;;;5032957;28;20037;-48
2023/04/10 08:00:38;;;;;;;6.03;5.43;;;14.30;52.00;;;;;;5029542;28;20048;-50
2023/04/10 08:03:06;;;;;;;8.10;7.30;;;14.50;52.30;;;;;;5018753;28;20068;-52
2023/04/10 08:05:33;;;;;;;7.25;6.47;;;14.50;51.90;;;;;;5015887;28;20038;-49
2023/04/10 08:07:59;;;;;;;8.30;6.53;;;14.50;51.40;;;;;;5029804;28;20040;-51
2023/04/10 08:10:26;;;;;;;6.28;5.63;;;14.60;51.20;;;;;;5027928;28;20401;-48
2023/04/10 08:12:53;;;;;;;7.97;7.03;;;14.60;50.80;;;;;;5021880;28;20420;-49
2023/04/10 08:15:19;;;;;;;6.85;6.10;;;14.70;50.50;;;;;;5031770;28;20092;-50
2023/04/10 08:17:46;;;;;;;6.88;5.88;;;14.70;50.30;;;;;;5025842;28;20042;-48
2023/04/10 08:20:13;;;;;;;6.25;5.55;;;14.70;50.10;;;;;;5032638;28;20037;-52
2023/04/10 08:22:42;;;;;;;6.15;5.55;;;14.70;50.20;;;;;;5037383;28;20045;-49
2023/04/10 08:25:09;;;;;;;7.35;6.22;;;14.70;50.30;;;;;;5030339;28;20549;-50
2023/04/10 08:27:36;;;;;;;6.78;5.70;;;14.70;50.30;;;;;;5030437;28;20061;-52
2023/04/10 08:30:03;;;;;;;6.03;5.13;;;14.70;50.30;;;;;;5031725;28;20041;-52
2023/04/10 08:32:29;;;;;;;7.35;5.57;;;14.70;50.40;;;;;;5020474;28;20041;-50
2023/04/10 08:34:56;;;;;;;6.78;6.00;;;14.70;50.20;;;;;;5030824;28;20075;-49
2023/04/10 08:37:25;;;;;;;6.57;5.40;;;14.80;50.30;;;;;;5029214;28;20052;-48
2023/04/10 08:39:52;;;;;;;9.40;6.35;;;14.80;50.50;;;;;;5032058;28;20053;-53
2023/04/10 08:42:19;;;;;;;8.85;6.00;;;14.80;51.00;;;;;;5025335;28;20052;-48
2023/04/10 08:44:48;;;;;;;7.80;6.68;;;14.90;50.90;;;;;;5027635;28;20046;-52
2023/04/10 08:47:18;;;;;;;8.60;5.72;;;15.00;50.70;;;;;;5023447;28;20045;-49
2023/04/10 08:49:56;;;;;;;6.90;6.13;;;15.00;51.00;;;;;;5034080;28;20099;-48
2023/04/10 08:52:30;;;;;;;6.45;5.47;;;15.20;50.90;;;;;;5027842;28;20490;-49
2023/04/10 08:54:59;;;;;;;7.50;5.65;;;15.30;51.20;;;;;;5029541;28;20037;-50
2023/04/10 08:57:26;;;;;;;9.05;5.55;;;15.40;51.50;;;;;;5029488;28;20045;-49
2023/04/10 08:59:53;;;;;;;6.38;5.53;;;15.60;51.30;;;;;;5023379;28;20046;-49
2023/04/10 09:02:20;;;;;;;5.93;5.32;;;15.70;51.00;;;;;;5026346;28;20068;-50
2023/04/10 09:04:53;;;;;;;6.05;5.30;;;15.90;51.30;;;;;;5021591;28;20050;-49
2023/04/10 09:07:22;;;;;;;7.13;5.65;;;16.00;50.40;;;;;;5024498;28;20045;-52
2023/04/10 09:09:48;;;;;;;6.05;5.10;;;16.30;50.20;;;;;;5022039;28;20529;-53
2023/04/10 09:12:15;;;;;;;6.68;5.28;;;16.30;50.00;;;;;;5034470;28;20037;-52
2023/04/10 09:14:42;;;;;;;6.60;6.00;;;16.40;49.90;;;;;;5024401;28;20042;-48
2023/04/10 09:17:18;;;;;;;6.05;5.45;;;16.60;49.90;;;;;;5022543;28;20052;-52
2023/04/10 09:19:47;;;;;;;6.07;5.53;;;16.70;50.00;;;;;;5035503;28;20052;-51
2023/04/10 09:22:15;;;;;;;7.60;5.75;;;16.80;50.10;;;;;;5033193;28;20468;-50
2023/04/10 09:24:44;;;;;;;5.50;4.90;;;16.90;49.90;;;;;;5032687;28;20516;-49
2023/04/10 09:27:30;;;;;;;7.10;5.63;;;17.10;49.70;;;;;;5026700;28;20055;-48
2023/04/10 09:29:57;;;;;;;5.20;4.53;;;17.30;49.60;;;;;;5030846;28;20037;-52
2023/04/10 09:32:44;;;;;;;6.25;4.93;;;17.40;49.00;;;;;;5034488;28;20095;-50
2023/04/10 09:35:12;;;;;;;5.35;4.88;;;17.50;48.50;;;;;;5033395;28;20042;-53
2023/04/10 09:37:41;;;;;;;5.43;4.90;;;17.60;48.70;;;;;;5033143;28;20041;-49
2023/04/10 09:40:22;;;;;;;5.53;4.95;;;17.70;48.40;;;;;;5039859;28;20049;-49
2023/04/10 09:42:49;;;;;;;5.65;4.72;;;17.90;48.80;;;;;;5034077;28;20053;-48
2023/04/10 09:45:21;;;;;;;5.47;4.88;;;17.90;48.60;;;;;;5034214;28;20049;-48
2023/04/10 09:48:06;;;;;;;6.28;5.53;;;18.10;49.10;;;;;;5033560;28;20424;-52
2023/04/10 09:50:36;;;;;;;5.20;4.70;;;18.20;47.80;;;;;;5032907;28;20116;-48
2023/04/10 09:53:07;;;;;;;6.35;5.22;;;18.30;48.40;;;;;;5024986;28;20045;-49
2023/04/10 09:55:35;;;;;;;4.72;4.32;;;18.40;48.10;;;;;;5028327;28;20045;-48
2023/04/10 09:58:03;;;;;;;4.97;4.38;;;18.50;47.70;;;;;;5022432;28;20494;-49
2023/04/10 10:00:38;;;;;;;5.72;5.13;;;18.60;47.10;;;;;;5025163;28;20040;-48
2023/04/10 10:03:07;;;;;;;5.70;4.40;;;18.70;46.70;;;;;;5024047;28;20565;-48
2023/04/10 10:05:40;;;;;;;5.32;4.43;;;18.80;47.00;;;;;;5024757;28;20100;-48
2023/04/10 10:08:12;;;;;;;5.90;5.30;;;18.90;46.90;;;;;;5023324;28;20050;-51
2023/04/10 10:10:53;;;;;;;5.03;4.53;;;19.00;46.90;;;;;;5030720;28;20545;-52
2023/04/10 10:13:27;;;;;;;6.30;4.53;;;19.10;46.30;;;;;;5027477;28;20331;-51
2023/04/10 10:16:10;;;;;;;5.43;4.93;;;19.10;45.60;;;;;;5021961;28;20052;-48
2023/04/10 10:18:43;;;;;;;;;;;19.20;45.40;;;;;;5023785;28;20046;-51
2023/04/10 10:21:12;;;;;;;5.78;4.00;;;19.30;46.30;;;;;;5028440;28;19921;-50
2023/04/10 10:23:41;;;;;;;5.85;4.32;;;19.40;46.00;;;;;;5035399;28;20580;-52
2023/04/10 10:26:09;;;;;;;5.72;4.78;;;19.40;45.90;;;;;;5023703;28;20092;-49
2023/04/10 10:28:38;;;;;;;6.50;5.13;;;19.40;45.80;;;;;;5018709;28;20041;-49
2023/04/10 10:31:07;;;;;;;5.57;4.97;;;19.50;46.10;;;;;;5021845;28;20468;-53
2023/04/10 10:33:37;;;;;;;7.90;4.07;;;19.50;46.40;;;;;;5020527;28;20370;-50
2023/04/10 10:36:04;;;;;;;4.30;3.92;;;19.50;46.60;;;;;;5017774;28;20056;-49
2023/04/10 10:38:31;;;;;;;5.35;4.70;;;19.50;46.00;;;;;;5010784;28;20037;-48
2023/04/10 10:41:17;;;;;;;4.82;4.32;;;19.60;46.10;;;;;;5021411;28;20041;-50
2023/04/10 10:43:54;;;;;;;5.35;4.75;;;19.60;46.00;;;;;;5023280;28;20050;-52
2023/04/10 10:46:45;;;;;;;6.18;4.22;;;19.60;45.80;;;;;;5026861;28;20042;-49
2023/04/10 10:49:11;;;;;;;4.68;4.00;;;19.70;45.90;;;;;;5019845;28;20053;-52
2023/04/10 10:51:49;;;;;;;4.80;4.40;;;19.70;46.20;;;;;;5023119;28;20148;-52
2023/04/10 10:54:32;;;;;;;4.22;3.22;;;19.80;45.90;;;;;;5023150;28;20498;-52
2023/04/10 10:57:00;;;;;;;3.75;3.00;;;19.80;45.30;;;;;;5032789;28;20449;-49
2023/04/10 10:59:53;;;;;;;2.28;2.08;;;19.90;45.20;;;;;;5033336;28;20030;-50
2023/04/10 11:02:19;;;;;;;2.63;2.42;;;20.00;43.80;;;;;;5031628;28;20421;-50
2023/04/10 11:04:47;;;;;;;2.58;2.38;;;20.10;43.20;;;;;;5034192;28;20047;-49
2023/04/10 11:07:15;;;;;;;2.40;2.20;;;20.10;42.70;;;;;;5042803;28;20041;-49
2023/04/10 11:09:53;;;;;;;2.53;2.33;;;20.20;42.50;;;;;;5053910;28;20178;-49
2023/04/10 11:12:23;;;;;;;2.58;2.38;;;20.30;41.50;;;;;;5036465;28;20428;-51
2023/04/10 11:15:00;;;;;;;2.20;2.00;;;20.30;42.00;;;;;;5053702;28;20072;-50
2023/04/10 11:17:49;;;;;;;2.92;2.70;;;20.40;41.20;;;;;;5028588;28;20033;-48
2023/04/10 11:20:27;;;;;;;2.40;2.20;;;20.40;40.80;;;;;;5043251;28;20451;-50
2023/04/10 11:23:11;;;;;;;3.70;2.05;;;20.50;41.30;;;;;;5024659;28;20045;-51
2023/04/10 11:25:52;;;;;;;2.97;2.70;;;20.60;40.80;;;;;;5021657;28;20046;-50
2023/04/10 11:28:31;;;;;;;2.78;2.40;;;20.70;40.50;;;;;;5027758;28;20525;-51
2023/04/10 11:31:25;;;;;;;2.38;2.10;;;20.80;40.30;;;;;;5042807;28;20056;-50
2023/04/10 11:34:02;;;;;;;6.60;2.08;;;20.80;40.40;;;;;;5024896;28;20061;-51
2023/04/10 11:36:31;;;;;;;2.60;2.40;;;20.90;39.90;;;;;;5029240;28;20044;-48
2023/04/10 11:39:04;;;;;;;3.28;2.90;;;21.00;40.10;;;;;;5029089;28;20405;-52
2023/04/10 11:41:33;;;;;;;2.05;1.95;;;21.00;39.40;;;;;;5036623;28;20037;-49
2023/04/10 11:44:01;;;;;;;2.90;2.17;;;21.00;39.80;;;;;;5041523;28;20049;-52
2023/04/10 11:46:28;;;;;;;2.30;2.10;;;21.10;40.00;;;;;;5037175;28;20045;-50
2023/04/10 11:49:00;;;;;;;2.55;2.30;;;21.10;39.60;;;;;;5032563;28;20091;-49
2023/04/10 11:51:28;;;;;;;2.50;2.30;;;21.20;39.30;;;;;;5036901;28;20076;-50
2023/04/10 11:54:05;;;;;;;2.17;2.00;;;21.20;39.20;;;;;;5037073;28;20038;-47
2023/04/10 11:56:32;;;;;;;2.28;2.15;;;21.30;38.80;;;;;;5041868;28;20053;-52
2023/04/10 11:59:06;;;;;;;2.25;2.10;;;21.30;38.90;;;;;;5042696;28;20041;-51
2023/04/10 12:01:33;;;;;;;2.35;2.15;;;21.40;38.70;;;;;;5038439;28;20045;-52
2023/04/10 12:04:00;;;;;;;2.25;2.05;;;21.50;38.60;;;;;;5038917;28;20056;-48
2023/04/10 12:06:27;;;;;;;2.08;1.88;;;21.60;38.70;;;;;;5028054;28;20041;-52
2023/04/10 12:08:54;;;;;;;2.38;2.17;;;21.70;38.70;;;;;;5030533;28;20405;-51
2023/04/10 12:11:25;;;;;;;2.60;2.40;;;21.80;38.40;;;;;;5031783;28;20053;-52
2023/04/10 12:13:56;;;;;;;3.05;2.20;;;22.00;37.70;;;;;;5031106;28;20048;-51
2023/04/10 12:16:24;;;;;;;3.20;2.10;;;22.10;37.50;;;;;;5024251;28;20054;-52
2023/04/10 12:18:51;;;;;;;2.10;2.00;;;22.20;37.10;;;;;;5039599;28;20564;-51
2023/04/10 12:21:18;;;;;;;2.10;2.00;;;22.40;37.10;;;;;;5040646;28;20042;-47
2023/04/10 12:23:45;;;;;;;2.60;2.00;;;22.40;37.00;;;;;;5040290;28;20044;-49
2023/04/10 12:26:14;;;;;;;1.85;1.75;;;22.60;36.60;;;;;;5031067;28;20068;-50
2023/04/10 12:28:49;;;;;;;2.20;2.10;;;22.70;36.20;;;;;;5027208;28;20390;-51
2023/04/10 12:31:17;;;;;;;1.80;1.70;;;22.80;36.20;;;;;;5040414;28;20044;-49
2023/04/10 12:33:45;;;;;;;2.15;2.05;;;22.80;36.40;;;;;;5023968;28;20045;-48
2023/04/10 12:36:22;;;;;;;3.30;3.00;;;23.00;36.60;;;;;;5037328;28;20052;-49
2023/04/10 12:38:49;;;;;;;3.22;2.72;;;23.10;36.20;;;;;;5042907;28;20037;-48
2023/04/10 12:41:22;;;;;;;2.60;2.40;;;23.20;36.00;;;;;;5041997;28;20045;-49
2023/04/10 12:43:50;;;;;;;2.50;2.10;;;23.20;35.00;;;;;;5037804;28;20049;-50
2023/04/10 12:46:24;;;;;;;1.85;1.58;;;23.30;35.70;;;;;;5040599;28;20049;-48
2023/04/10 12:48:51;;;;;;;2.15;1.95;;;23.40;35.00;;;;;;5026336;28;20456;-49
2023/04/10 12:51:18;;;;;;;2.03;1.90;;;23.40;34.80;;;;;;5030717;28;20053;-48
2023/04/10 12:53:45;;;;;;;2.55;2.13;;;23.50;35.00;;;;;;5024604;28;20038;-51
2023/04/10 12:56:13;;;;;;;1.77;1.67;;;23.50;34.80;;;;;;5022827;28;20049;-48
2023/04/10 12:58:41;;;;;;;1.88;1.77;;;23.50;34.50;;;;;;5031079;28;20498;-48
2023/04/10 13:01:08;;;;;;;1.80;1.70;;;23.50;34.10;;;;;;5030489;28;20125;-50
2023/04/10 13:03:36;;;;;;;1.80;1.70;;;23.50;34.10;;;;;;5032726;28;20567;-49
2023/04/10 13:06:07;;;;;;;2.17;1.90;;;23.50;34.20;;;;;;5032702;28;20072;-53
2023/04/10 13:08:34;;;;;;;2.00;1.90;;;23.50;34.00;;;;;;5023323;28;20046;-49
2023/04/10 13:11:04;;;;;;;2.17;2.08;;;23.50;34.30;;;;;;5067093;22;20045;-53
2023/04/10 13:13:31;;;;;;;2.75;1.92;;;23.50;33.90;;;;;;5050093;28;20033;-52